Time;durP1;ratioP1;P1;durP2;ratioP2;P2;SDS_P1;SDS_P2;PMS_P1;PMS_P2;Temp;Humidity;BMP_temperature;BMP_pressure;BME280_temperature;BME280_humidity;BME280_pressure;Samples;Min_cycle;Max_cycle;Signal;HPM_P1;HPM_P2
2023/09/19 00:00:24;;;;;;;6.32;2.38;;;14.90;99.90;;;;;;5022774;28;20049;-67
2023/09/19 00:02:54;;;;;;;5.15;1.40;;;14.90;99.90;;;;;;5031162;28;20037;-68
2023/09/19 00:05:23;;;;;;;4.67;1.33;;;14.80;99.90;;;;;;5006675;28;20073;-68
2023/09/19 00:07:51;;;;;;;3.53;1.50;;;14.70;99.90;;;;;;5022446;28;20062;-68
2023/09/19 00:10:16;;;;;;;4.40;1.70;;;14.70;99.90;;;;;;5011979;28;20037;-67
2023/09/19 00:12:45;;;;;;;10.43;1.80;;;14.60;99.90;;;;;;5013945;28;20048;-69
2023/09/19 00:15:11;;;;;;;6.70;1.77;;;14.60;99.90;;;;;;5004518;28;20555;-68
2023/09/19 00:17:37;;;;;;;7.80;2.00;;;14.50;99.90;;;;;;5022134;28;20112;-68
2023/09/19 00:20:12;;;;;;;4.50;1.75;;;14.50;99.90;;;;;;5031114;28;20045;-68
2023/09/19 00:22:41;;;;;;;10.43;2.42;;;14.50;99.90;;;;;;5016709;28;20116;-69
2023/09/19 00:25:07;;;;;;;7.03;1.80;;;14.50;99.90;;;;;;5002257;28;20048;-68
2023/09/19 00:27:35;;;;;;;7.40;1.95;;;14.40;99.90;;;;;;5030801;28;20041;-69
2023/09/19 00:30:01;;;;;;;5.80;2.03;;;14.40;99.90;;;;;;5015723;28;20041;-67
2023/09/19 00:32:32;;;;;;;7.50;2.28;;;14.40;99.90;;;;;;5019651;28;20042;-67
2023/09/19 00:34:57;;;;;;;7.07;2.38;;;14.40;99.90;;;;;;5037081;28;20029;-68
2023/09/19 00:37:23;;;;;;;5.90;2.28;;;14.30;99.90;;;;;;5037802;28;20041;-68
2023/09/19 00:39:49;;;;;;;7.40;2.30;;;14.40;99.90;;;;;;5003725;28;20041;-70
2023/09/19 00:42:21;;;;;;;7.88;2.60;;;14.40;99.90;;;;;;5008735;28;20053;-69
2023/09/19 00:44:47;;;;;;;8.77;2.42;;;14.40;99.90;;;;;;5034152;28;20045;-70
2023/09/19 00:47:17;;;;;;;6.47;2.40;;;14.40;99.90;;;;;;5023564;28;20386;-69
2023/09/19 00:49:52;;;;;;;8.48;2.50;;;14.40;99.90;;;;;;5026830;28;20113;-69
2023/09/19 00:52:19;;;;;;;10.60;2.28;;;14.40;99.90;;;;;;5033410;28;20037;-68
2023/09/19 00:54:47;;;;;;;8.05;2.22;;;14.40;99.90;;;;;;5024304;28;20047;-68
2023/09/19 00:57:14;;;;;;;7.72;2.20;;;14.40;99.90;;;;;;5028074;28;20033;-68
2023/09/19 00:59:40;;;;;;;11.27;2.65;;;14.40;99.90;;;;;;5028149;28;20048;-69
2023/09/19 01:02:06;;;;;;;8.93;2.50;;;14.40;99.90;;;;;;5034390;28;20041;-69
2023/09/19 01:04:33;;;;;;;9.00;2.40;;;14.40;99.90;;;;;;5020420;28;20127;-68
2023/09/19 01:06:59;;;;;;;9.85;2.63;;;14.40;99.90;;;;;;5029381;28;20467;-68
2023/09/19 01:09:24;;;;;;;10.50;2.83;;;14.30;99.90;;;;;;5008330;28;20073;-68
2023/09/19 01:11:53;;;;;;;8.55;2.70;;;14.30;99.90;;;;;;5028187;28;20116;-68
2023/09/19 01:14:40;;;;;;;13.15;3.20;;;14.30;99.90;;;;;;5031029;28;20120;-68
2023/09/19 01:17:31;;;;;;;8.18;2.95;;;14.20;99.90;;;;;;5030688;28;20045;-68
2023/09/19 01:20:04;;;;;;;;;;;14.30;99.90;;;;;;5026177;28;20085;-68
2023/09/19 01:22:45;;;;;;;9.43;3.08;;;14.30;99.90;;;;;;5022244;28;19960;-68
2023/09/19 01:25:45;;;;;;;7.30;2.85;;;14.30;99.90;;;;;;5031774;28;20041;-69
2023/09/19 01:28:30;;;;;;;10.07;3.42;;;14.30;99.90;;;;;;5022940;28;20061;-68
2023/09/19 01:30:58;;;;;;;12.63;3.63;;;14.40;99.90;;;;;;5004585;28;20060;-68
2023/09/19 01:33:25;;;;;;;11.52;3.40;;;14.30;99.90;;;;;;5023033;28;20048;-69
2023/09/19 01:35:52;;;;;;;6.65;2.60;;;14.30;99.90;;;;;;5009306;28;20526;-69
2023/09/19 01:38:19;;;;;;;11.95;3.53;;;14.30;99.90;;;;;;5031368;28;20041;-68
2023/09/19 01:41:04;;;;;;;5.38;2.90;;;14.30;99.90;;;;;;5030520;28;20057;-68
2023/09/19 01:43:42;;;;;;;9.68;3.42;;;14.30;99.90;;;;;;5024786;28;20041;-68
2023/09/19 01:46:37;;;;;;;9.15;3.90;;;14.30;99.90;;;;;;5022972;28;20049;-68
2023/09/19 01:49:20;;;;;;;9.68;3.30;;;14.30;99.90;;;;;;5031191;28;20036;-69
2023/09/19 01:52:09;;;;;;;6.53;3.15;;;14.20;99.90;;;;;;5029762;28;20037;-68
2023/09/19 01:54:45;;;;;;;9.40;2.90;;;14.20;99.90;;;;;;5008261;28;20057;-69
2023/09/19 01:57:28;;;;;;;13.55;3.33;;;14.10;99.90;;;;;;5030002;28;20072;-68
2023/09/19 02:00:06;;;;;;;13.52;3.33;;;14.20;99.90;;;;;;5026562;28;20033;-68
2023/09/19 02:02:37;;;;;;;10.23;3.22;;;14.10;99.90;;;;;;5004662;28;20041;-68
2023/09/19 02:05:04;;;;;;;7.78;2.70;;;14.10;99.90;;;;;;5022245;28;20057;-69
2023/09/19 02:07:31;;;;;;;13.07;3.25;;;14.00;99.90;;;;;;5014184;28;20137;-68
2023/09/19 02:09:59;;;;;;;14.65;3.47;;;14.10;99.90;;;;;;5030329;28;20033;-68
2023/09/19 02:12:25;;;;;;;11.73;3.08;;;14.00;99.90;;;;;;5025103;28;20451;-69
2023/09/19 02:14:51;;;;;;;12.43;3.08;;;14.00;99.90;;;;;;5032882;28;20079;-68
2023/09/19 02:17:17;;;;;;;15.73;3.17;;;14.00;99.90;;;;;;5039145;28;20090;-68
2023/09/19 02:19:43;;;;;;;8.32;2.78;;;13.90;99.90;;;;;;5022870;28;20053;-69
2023/09/19 02:22:10;;;;;;;8.88;3.33;;;13.90;99.90;;;;;;5024234;28;20091;-68
2023/09/19 02:24:36;;;;;;;8.50;2.83;;;13.90;99.90;;;;;;5032718;28;20534;-68
2023/09/19 02:27:07;;;;;;;12.23;3.00;;;13.90;99.90;;;;;;5029224;28;20204;-68
2023/09/19 02:29:34;;;;;;;12.20;3.23;;;13.90;99.90;;;;;;5025424;28;20061;-68
2023/09/19 02:32:01;;;;;;;8.48;2.90;;;13.90;99.90;;;;;;5031064;28;20310;-69
2023/09/19 02:34:27;;;;;;;8.50;3.05;;;13.90;99.90;;;;;;5020922;28;21133;-68
2023/09/19 02:36:54;;;;;;;9.88;2.80;;;13.80;99.90;;;;;;5025332;28;20038;-68
2023/09/19 02:39:20;;;;;;;13.80;3.05;;;13.80;99.90;;;;;;5005337;28;20085;-68
2023/09/19 02:41:46;;;;;;;6.35;2.63;;;13.80;99.90;;;;;;5028571;28;20069;-68
2023/09/19 02:44:11;;;;;;;8.18;2.60;;;13.80;99.90;;;;;;5020305;28;20044;-69
2023/09/19 02:46:37;;;;;;;7.50;2.75;;;13.80;99.90;;;;;;5031510;28;20480;-69
2023/09/19 02:49:06;;;;;;;10.63;3.22;;;13.70;99.90;;;;;;5032550;28;20037;-68
2023/09/19 02:51:33;;;;;;;8.80;2.90;;;13.70;99.90;;;;;;5023900;28;20041;-68
2023/09/19 02:54:03;;;;;;;13.60;2.67;;;13.70;99.90;;;;;;5025711;28;20034;-68
2023/09/19 02:56:29;;;;;;;8.15;2.83;;;13.70;99.90;;;;;;5006460;28;20060;-68
2023/09/19 02:58:55;;;;;;;7.78;2.47;;;13.70;99.90;;;;;;5027275;28;20053;-68
2023/09/19 03:01:22;;;;;;;8.63;2.30;;;13.70;99.90;;;;;;5002832;28;20387;-68
2023/09/19 03:03:48;;;;;;;8.32;2.55;;;13.70;99.90;;;;;;5023543;28;20113;-68
2023/09/19 03:06:14;;;;;;;10.75;2.70;;;13.70;99.90;;;;;;5031754;28;20132;-68
2023/09/19 03:08:42;;;;;;;6.22;2.63;;;13.70;99.90;;;;;;5020782;28;20084;-68
2023/09/19 03:11:09;;;;;;;6.32;3.13;;;13.80;99.90;;;;;;5023475;28;20111;-69
2023/09/19 03:13:37;;;;;;;9.48;3.05;;;13.80;99.90;;;;;;5024035;28;20041;-68
2023/09/19 03:16:05;;;;;;;10.90;2.70;;;13.70;99.90;;;;;;5031459;28;20049;-69
2023/09/19 03:18:34;;;;;;;6.80;2.40;;;13.70;99.90;;;;;;5017536;28;20124;-68
2023/09/19 03:21:02;;;;;;;7.35;2.65;;;13.70;99.90;;;;;;5020391;28;20062;-68
2023/09/19 03:23:28;;;;;;;11.60;2.83;;;13.70;99.90;;;;;;5011137;28;20124;-68
2023/09/19 03:25:55;;;;;;;6.30;2.70;;;13.80;99.90;;;;;;5008953;28;20029;-68
2023/09/19 03:28:22;;;;;;;6.68;2.28;;;13.70;99.90;;;;;;5005191;28;20060;-68
2023/09/19 03:31:04;;;;;;;9.13;2.80;;;13.80;99.90;;;;;;5027172;28;20083;-68
2023/09/19 03:33:33;;;;;;;9.85;3.10;;;13.80;99.90;;;;;;5011550;28;20045;-68
2023/09/19 03:36:00;;;;;;;10.10;3.00;;;13.80;99.90;;;;;;5013701;28;20034;-68
2023/09/19 03:38:26;;;;;;;8.15;2.80;;;13.90;99.90;;;;;;5004958;28;20110;-68
2023/09/19 03:40:52;;;;;;;9.07;2.63;;;14.00;99.90;;;;;;5023884;28;20038;-68
2023/09/19 03:43:19;;;;;;;7.28;2.92;;;14.00;99.90;;;;;;5022825;28;20040;-68
2023/09/19 03:45:46;;;;;;;10.50;3.13;;;14.10;99.90;;;;;;5022509;28;20053;-69
2023/09/19 03:48:12;;;;;;;10.25;3.05;;;14.10;99.90;;;;;;5030791;28;20045;-68
2023/09/19 03:50:38;;;;;;;12.05;3.22;;;14.10;99.90;;;;;;5000306;28;20045;-69
2023/09/19 03:53:07;;;;;;;9.70;3.03;;;14.20;99.90;;;;;;5027904;28;20037;-69
2023/09/19 03:55:32;;;;;;;9.80;3.10;;;14.20;99.90;;;;;;5011257;28;20390;-68
2023/09/19 03:57:58;;;;;;;10.45;3.20;;;14.20;99.90;;;;;;5010286;28;20041;-67
2023/09/19 04:00:26;;;;;;;8.25;3.30;;;14.20;99.90;;;;;;5030218;28;20037;-68
2023/09/19 04:02:52;;;;;;;16.05;3.83;;;14.20;99.90;;;;;;5022579;28;20483;-68
2023/09/19 04:05:18;;;;;;;9.93;3.30;;;14.30;99.90;;;;;;5031627;28;20038;-67
2023/09/19 04:07:44;;;;;;;10.90;2.80;;;14.30;99.90;;;;;;5027492;28;20037;-70
2023/09/19 04:10:14;;;;;;;10.75;3.10;;;14.40;99.90;;;;;;5029782;28;20041;-69
2023/09/19 04:12:40;;;;;;;8.18;3.15;;;14.40;99.90;;;;;;5028880;28;20048;-69
2023/09/19 04:15:06;;;;;;;10.05;3.10;;;14.30;99.90;;;;;;5023526;28;20117;-68
2023/09/19 04:17:33;;;;;;;7.47;3.00;;;14.30;99.90;;;;;;5004505;28;20753;-69
2023/09/19 04:19:59;;;;;;;9.38;3.45;;;14.30;99.90;;;;;;5005352;28;20053;-69
2023/09/19 04:22:25;;;;;;;12.32;3.22;;;14.30;99.90;;;;;;5015570;28;20064;-68
2023/09/19 04:24:51;;;;;;;10.27;3.03;;;14.30;99.90;;;;;;5022422;28;20544;-68
2023/09/19 04:27:18;;;;;;;11.93;3.53;;;14.20;99.90;;;;;;5024700;28;20109;-68
2023/09/19 04:29:44;;;;;;;9.70;2.83;;;14.20;99.90;;;;;;5034709;28;20038;-70
2023/09/19 04:32:10;;;;;;;10.57;3.03;;;14.20;99.90;;;;;;5020202;28;20034;-69
2023/09/19 04:34:35;;;;;;;7.85;2.63;;;14.10;99.90;;;;;;5029845;28;20480;-68
2023/09/19 04:37:02;;;;;;;13.38;3.33;;;14.10;99.90;;;;;;5030881;28;20041;-69
2023/09/19 04:39:28;;;;;;;13.30;2.80;;;14.10;99.90;;;;;;5030972;28;20119;-69
2023/09/19 04:41:54;;;;;;;13.57;3.00;;;14.10;99.90;;;;;;5027688;28;20065;-68
2023/09/19 04:44:20;;;;;;;13.05;2.92;;;14.10;99.90;;;;;;5028044;28;20076;-68
2023/09/19 04:46:46;;;;;;;13.95;3.00;;;14.00;99.90;;;;;;5026050;28;20465;-69
2023/09/19 04:49:12;;;;;;;9.90;2.92;;;14.00;99.90;;;;;;5027320;28;20034;-68
2023/09/19 04:51:38;;;;;;;8.60;2.47;;;14.00;99.90;;;;;;5011204;28;20041;-68
2023/09/19 04:54:04;;;;;;;17.88;3.35;;;14.00;99.90;;;;;;5031359;28;20416;-68
2023/09/19 04:56:29;;;;;;;11.07;3.42;;;14.00;99.90;;;;;;5030945;28;20041;-68
2023/09/19 04:58:58;;;;;;;11.27;2.90;;;14.00;99.90;;;;;;5030109;28;20041;-69
2023/09/19 05:01:23;;;;;;;9.90;2.78;;;13.90;99.90;;;;;;5025746;28;20051;-67
2023/09/19 05:03:52;;;;;;;8.88;2.80;;;13.90;99.90;;;;;;5028726;28;20093;-67
2023/09/19 05:06:20;;;;;;;10.85;2.47;;;13.90;99.90;;;;;;5014036;28;20177;-68
2023/09/19 05:08:50;;;;;;;11.93;2.67;;;13.90;99.90;;;;;;5010367;28;20034;-68
2023/09/19 05:11:15;;;;;;;15.23;2.72;;;13.90;99.90;;;;;;5032591;28;20052;-69
2023/09/19 05:13:41;;;;;;;12.82;3.35;;;13.80;99.90;;;;;;5025267;28;20033;-69
2023/09/19 05:16:09;;;;;;;15.50;2.92;;;13.90;99.90;;;;;;5025023;28;20045;-68
2023/09/19 05:18:35;;;;;;;13.00;2.75;;;13.80;99.90;;;;;;5030674;28;20489;-69
2023/09/19 05:21:02;;;;;;;10.43;2.58;;;13.80;99.90;;;;;;5027617;28;20127;-70
2023/09/19 05:23:28;;;;;;;13.15;3.10;;;13.80;99.90;;;;;;5025938;28;20459;-67
2023/09/19 05:25:54;;;;;;;12.27;2.83;;;13.80;99.90;;;;;;5026307;28;20547;-67
2023/09/19 05:28:20;;;;;;;10.57;2.42;;;13.80;99.90;;;;;;5033399;28;20048;-68
2023/09/19 05:30:47;;;;;;;10.88;2.60;;;13.80;99.90;;;;;;5021811;28;20033;-67
2023/09/19 05:33:13;;;;;;;8.15;2.42;;;13.70;99.90;;;;;;5023618;28;20633;-67
2023/09/19 05:35:39;;;;;;;16.33;2.83;;;13.70;99.90;;;;;;5024827;28;20036;-67
2023/09/19 05:38:08;;;;;;;13.68;2.67;;;13.70;99.90;;;;;;5022937;28;20092;-67
2023/09/19 05:40:34;;;;;;;11.52;2.90;;;13.60;99.90;;;;;;5023400;28;20037;-68
2023/09/19 05:43:00;;;;;;;11.32;3.08;;;13.60;99.90;;;;;;5033065;28;20132;-67
2023/09/19 05:45:27;;;;;;;6.80;2.28;;;13.60;99.90;;;;;;4994941;28;20112;-67
2023/09/19 05:48:00;;;;;;;8.82;3.10;;;13.50;99.90;;;;;;5019849;28;20084;-67
2023/09/19 05:50:26;;;;;;;8.43;2.70;;;13.50;99.90;;;;;;5031453;28;20446;-67
2023/09/19 05:52:53;;;;;;;8.45;2.25;;;13.50;99.90;;;;;;5033420;28;20116;-68
2023/09/19 05:55:18;;;;;;;11.85;2.70;;;13.50;99.90;;;;;;5023758;28;20036;-67
2023/09/19 05:57:52;;;;;;;13.55;2.38;;;13.60;99.90;;;;;;5019490;28;20120;-68
2023/09/19 06:00:22;;;;;;;10.85;2.60;;;13.50;99.90;;;;;;5023521;28;20042;-68
2023/09/19 06:02:56;;;;;;;11.55;2.83;;;13.60;99.90;;;;;;5015600;28;20049;-68
2023/09/19 06:05:26;;;;;;;9.38;2.65;;;13.60;99.90;;;;;;5025160;28;20072;-67
2023/09/19 06:07:52;;;;;;;13.02;2.67;;;13.70;99.90;;;;;;5027318;28;20049;-67
2023/09/19 06:10:20;;;;;;;12.93;2.80;;;13.70;99.90;;;;;;5024761;28;20032;-67
2023/09/19 06:12:46;;;;;;;9.88;3.00;;;13.80;99.90;;;;;;5020494;28;20034;-67
2023/09/19 06:15:15;;;;;;;9.32;2.83;;;13.90;99.90;;;;;;5022423;28;20037;-66
2023/09/19 06:17:51;;;;;;;8.27;2.40;;;13.90;99.90;;;;;;5032425;28;20508;-66
2023/09/19 06:20:19;;;;;;;8.68;2.38;;;14.00;99.90;;;;;;5024314;28;20037;-66
2023/09/19 06:22:45;;;;;;;10.80;3.00;;;14.00;99.90;;;;;;5001441;28;20049;-67
2023/09/19 06:25:19;;;;;;;14.77;2.88;;;14.00;99.90;;;;;;5023452;28;20044;-67
2023/09/19 06:27:45;;;;;;;10.30;3.00;;;14.00;99.90;;;;;;5028388;28;20407;-66
2023/09/19 06:30:14;;;;;;;9.30;2.80;;;14.10;99.90;;;;;;5029525;28;20045;-66
2023/09/19 06:32:44;;;;;;;8.88;2.67;;;14.10;99.90;;;;;;5004861;28;20048;-66
2023/09/19 06:35:11;;;;;;;9.75;2.55;;;14.20;99.90;;;;;;5011147;28;20053;-66
2023/09/19 06:37:40;;;;;;;8.93;2.53;;;14.10;99.90;;;;;;5024157;28;20734;-66
2023/09/19 06:40:16;;;;;;;9.60;2.53;;;14.10;99.90;;;;;;5023810;28;20044;-66
2023/09/19 06:42:46;;;;;;;11.02;2.88;;;14.10;99.90;;;;;;5022635;28;20420;-66
2023/09/19 06:45:17;;;;;;;10.75;2.90;;;14.10;99.90;;;;;;5014540;28;20040;-68
2023/09/19 06:47:50;;;;;;;8.25;2.42;;;14.20;99.90;;;;;;5024172;28;20037;-67
2023/09/19 06:50:18;;;;;;;9.75;2.88;;;14.20;99.90;;;;;;5024049;28;20069;-66
2023/09/19 06:52:45;;;;;;;13.60;2.70;;;14.20;99.90;;;;;;5014575;28;20511;-67
2023/09/19 06:55:13;;;;;;;12.88;3.25;;;14.20;99.90;;;;;;5028337;28;20037;-67
2023/09/19 06:57:40;;;;;;;7.82;2.35;;;14.30;99.90;;;;;;5020994;28;20495;-67
2023/09/19 07:00:15;;;;;;;9.48;2.80;;;14.30;99.90;;;;;;5020771;28;20510;-67
2023/09/19 07:02:44;;;;;;;12.15;2.85;;;14.40;99.90;;;;;;5024954;28;20030;-67
2023/09/19 07:05:10;;;;;;;11.82;2.92;;;14.40;99.90;;;;;;5022681;28;20038;-67
2023/09/19 07:07:35;;;;;;;10.38;2.50;;;14.40;99.90;;;;;;5014059;28;20057;-66
2023/09/19 07:10:02;;;;;;;15.15;2.90;;;14.50;99.90;;;;;;5030459;28;20044;-67
2023/09/19 07:12:28;;;;;;;9.13;3.10;;;14.70;99.90;;;;;;5016659;28;20041;-67
2023/09/19 07:14:54;;;;;;;9.18;2.55;;;14.80;99.90;;;;;;5027393;28;20042;-67
2023/09/19 07:17:21;;;;;;;10.43;3.00;;;14.80;99.90;;;;;;5031058;28;20116;-67
2023/09/19 07:19:48;;;;;;;10.02;2.42;;;14.80;99.90;;;;;;5023113;28;20037;-67
2023/09/19 07:22:13;;;;;;;11.88;2.70;;;14.90;99.90;;;;;;5021423;28;20052;-67
2023/09/19 07:24:39;;;;;;;13.65;3.08;;;15.10;99.90;;;;;;5031599;28;20041;-67
2023/09/19 07:27:05;;;;;;;7.07;2.70;;;15.20;99.90;;;;;;5017606;28;20044;-67
2023/09/19 07:29:30;;;;;;;10.88;2.90;;;15.20;99.90;;;;;;5021184;28;20105;-67
2023/09/19 07:31:56;;;;;;;8.48;2.53;;;15.20;99.90;;;;;;5016481;28;20554;-68
2023/09/19 07:34:22;;;;;;;10.98;2.50;;;15.20;99.90;;;;;;5021333;28;20029;-67
2023/09/19 07:36:48;;;;;;;12.15;2.88;;;15.20;99.90;;;;;;5014479;28;20037;-67
2023/09/19 07:39:14;;;;;;;7.63;2.58;;;15.30;99.90;;;;;;5019245;28;20511;-67
2023/09/19 07:41:39;;;;;;;11.43;2.42;;;15.40;99.90;;;;;;5010162;28;20484;-67
2023/09/19 07:44:05;;;;;;;11.60;2.75;;;15.50;99.90;;;;;;5018762;28;20085;-68
2023/09/19 07:46:31;;;;;;;10.50;2.67;;;15.50;99.90;;;;;;5026623;28;20076;-67
2023/09/19 07:48:57;;;;;;;12.27;2.75;;;15.50;99.90;;;;;;5024282;28;20033;-69
2023/09/19 07:51:23;;;;;;;12.40;2.80;;;15.60;99.90;;;;;;5026091;28;20565;-69
2023/09/19 07:53:48;;;;;;;12.77;2.65;;;15.60;99.90;;;;;;5025100;28;20108;-69
2023/09/19 07:56:15;;;;;;;10.20;2.67;;;15.60;99.90;;;;;;5021029;28;20034;-69
2023/09/19 07:58:43;;;;;;;9.85;2.38;;;15.60;99.90;;;;;;4999895;28;20046;-68
2023/09/19 08:01:10;;;;;;;10.52;2.60;;;15.70;99.90;;;;;;5023718;28;20472;-69
2023/09/19 08:03:43;;;;;;;10.05;2.97;;;15.70;99.90;;;;;;5025704;28;20038;-69
2023/09/19 08:06:10;;;;;;;11.00;2.45;;;15.70;99.90;;;;;;5030664;28;20112;-69
2023/09/19 08:08:39;;;;;;;9.77;2.42;;;15.70;99.90;;;;;;5029499;28;20123;-68
2023/09/19 08:11:12;;;;;;;12.07;2.88;;;15.70;99.90;;;;;;5013182;28;20034;-68
2023/09/19 08:13:43;;;;;;;10.07;2.67;;;15.80;99.90;;;;;;5022808;28;20121;-67
2023/09/19 08:16:10;;;;;;;9.80;2.20;;;15.80;99.90;;;;;;5028070;28;20480;-67
2023/09/19 08:18:36;;;;;;;14.10;2.42;;;15.80;99.90;;;;;;5020546;28;20038;-66
2023/09/19 08:21:02;;;;;;;12.10;3.30;;;15.90;99.90;;;;;;5029996;28;20104;-68
2023/09/19 08:23:28;;;;;;;13.90;3.00;;;15.90;99.90;;;;;;5023353;28;20120;-69
2023/09/19 08:25:58;;;;;;;11.48;2.80;;;16.00;99.90;;;;;;5016867;28;20048;-68
2023/09/19 08:28:24;;;;;;;12.20;3.28;;;16.00;99.90;;;;;;5021214;28;20038;-69
2023/09/19 08:30:51;;;;;;;10.77;2.53;;;16.00;99.90;;;;;;5026111;28;20043;-69
2023/09/19 08:33:16;;;;;;;10.05;2.75;;;16.10;99.90;;;;;;5019334;28;20120;-69
2023/09/19 08:35:43;;;;;;;10.45;2.55;;;16.20;99.90;;;;;;5011483;28;20124;-69
2023/09/19 08:38:10;;;;;;;11.80;2.88;;;16.30;99.90;;;;;;5022650;28;20045;-69
2023/09/19 08:40:41;;;;;;;12.40;3.00;;;16.30;99.90;;;;;;5026518;28;20535;-69
2023/09/19 08:43:07;;;;;;;14.32;3.10;;;16.30;99.90;;;;;;5024983;28;20040;-69
2023/09/19 08:45:33;;;;;;;9.57;2.50;;;16.30;99.90;;;;;;5030476;28;20037;-69
2023/09/19 08:48:20;;;;;;;10.85;3.13;;;16.50;99.90;;;;;;5013186;28;20053;-69
2023/09/19 08:50:55;;;;;;;13.10;2.83;;;16.50;99.90;;;;;;5027632;28;20048;-69
2023/09/19 08:53:49;;;;;;;11.45;3.25;;;16.70;99.90;;;;;;5027483;28;20898;-70
2023/09/19 08:56:17;;;;;;;14.23;3.13;;;16.50;99.90;;;;;;5001596;28;20072;-69
2023/09/19 08:59:02;;;;;;;10.30;2.60;;;16.60;99.90;;;;;;5020424;28;20111;-69
2023/09/19 09:01:28;;;;;;;11.95;3.22;;;16.60;99.90;;;;;;5025897;28;20117;-69
2023/09/19 09:03:56;;;;;;;11.05;3.28;;;16.70;99.90;;;;;;5014927;28;20038;-70
2023/09/19 09:06:23;;;;;;;8.68;2.90;;;16.80;99.90;;;;;;5014341;28;20055;-69
2023/09/19 09:08:51;;;;;;;11.88;3.20;;;16.90;99.90;;;;;;5020037;28;20045;-69
2023/09/19 09:11:17;;;;;;;10.57;2.92;;;16.90;99.90;;;;;;5013734;28;20481;-69
2023/09/19 09:13:47;;;;;;;13.82;3.47;;;17.00;99.90;;;;;;5028256;28;20065;-69
2023/09/19 09:16:17;;;;;;;13.57;2.70;;;17.10;99.90;;;;;;5027956;28;20599;-69
2023/09/19 09:18:44;;;;;;;14.85;3.20;;;17.10;99.90;;;;;;5013869;28;20614;-69
2023/09/19 09:21:10;;;;;;;11.98;3.08;;;17.20;99.90;;;;;;5031729;28;20107;-69
2023/09/19 09:23:35;;;;;;;10.32;2.55;;;17.30;99.90;;;;;;5026673;28;20500;-69
2023/09/19 09:26:05;;;;;;;6.80;1.98;;;17.30;99.90;;;;;;5027652;28;20042;-69
2023/09/19 09:28:33;;;;;;;10.70;2.40;;;17.50;99.90;;;;;;5034266;28;20046;-69
2023/09/19 09:31:02;;;;;;;14.85;3.25;;;17.50;99.90;;;;;;5023175;28;20448;-69
2023/09/19 09:33:28;;;;;;;15.23;3.00;;;17.60;99.90;;;;;;5025556;28;20485;-69
2023/09/19 09:36:00;;;;;;;12.45;3.22;;;17.70;99.90;;;;;;5020356;28;20116;-69
2023/09/19 09:38:27;;;;;;;11.98;2.58;;;17.70;99.90;;;;;;5016257;28;20475;-69
2023/09/19 09:41:06;;;;;;;11.70;2.47;;;17.70;99.90;;;;;;5022584;28;20446;-69
2023/09/19 09:43:38;;;;;;;7.93;2.70;;;17.70;99.90;;;;;;5021876;28;20092;-69
2023/09/19 09:51:39;;;;;;;9.98;2.40;;;17.70;99.90;;;;;;5011992;28;20527;-69
2023/09/19 09:54:15;;;;;;;9.23;2.80;;;17.70;99.90;;;;;;5016526;28;20042;-70
2023/09/19 09:56:59;;;;;;;11.80;3.00;;;17.70;99.90;;;;;;5017833;28;20520;-69
2023/09/19 09:59:46;;;;;;;11.02;2.58;;;17.70;99.90;;;;;;5010370;28;20046;-69
2023/09/19 10:02:25;;;;;;;9.35;3.10;;;17.70;99.90;;;;;;5031518;28;20041;-69
2023/09/19 10:04:59;;;;;;;11.43;2.97;;;17.70;99.90;;;;;;5007942;28;20053;-70
2023/09/19 10:07:32;;;;;;;10.30;3.05;;;17.70;99.90;;;;;;5018711;28;20037;-70
2023/09/19 10:10:24;;;;;;;12.23;3.22;;;17.70;99.90;;;;;;5024221;28;20040;-70
2023/09/19 10:12:56;;;;;;;12.50;3.13;;;17.80;99.90;;;;;;5033244;28;20099;-70
2023/09/19 10:15:26;;;;;;;11.73;3.25;;;17.80;99.90;;;;;;5020815;28;20120;-69
2023/09/19 10:17:58;;;;;;;11.10;3.05;;;17.90;99.90;;;;;;5020894;28;20142;-69
2023/09/19 10:20:36;;;;;;;11.20;2.97;;;18.00;99.90;;;;;;5015034;28;20049;-69
2023/09/19 10:23:12;;;;;;;15.70;3.78;;;18.00;99.90;;;;;;5029452;28;20132;-69
2023/09/19 10:25:40;;;;;;;11.15;3.40;;;17.90;99.90;;;;;;5012033;28;20050;-69
2023/09/19 10:28:10;;;;;;;8.77;3.03;;;17.90;99.90;;;;;;5004237;28;20053;-69
2023/09/19 10:30:41;;;;;;;11.55;3.28;;;18.00;99.90;;;;;;5025951;28;20033;-69
2023/09/19 10:33:08;;;;;;;8.35;2.92;;;18.20;99.90;;;;;;5022647;28;20484;-70
2023/09/19 10:35:37;;;;;;;11.32;3.08;;;18.30;99.90;;;;;;5023643;28;20041;-70
2023/09/19 10:38:04;;;;;;;12.50;3.17;;;18.40;99.90;;;;;;5015206;28;20091;-70
2023/09/19 10:40:32;;;;;;;12.23;3.08;;;18.60;99.90;;;;;;5024308;28;20053;-70
2023/09/19 10:43:06;;;;;;;9.05;2.58;;;18.50;99.90;;;;;;5006562;28;20088;-69
2023/09/19 10:45:33;;;;;;;10.70;3.20;;;18.50;99.90;;;;;;5010745;28;20479;-70
2023/09/19 10:48:03;;;;;;;11.02;3.20;;;18.50;99.90;;;;;;5013489;28;20072;-70
2023/09/19 10:50:44;;;;;;;9.35;2.47;;;18.50;99.90;;;;;;5019212;28;20038;-70
2023/09/19 10:53:11;;;;;;;9.55;2.80;;;18.40;99.90;;;;;;4993134;28;20423;-70
2023/09/19 10:55:38;;;;;;;8.32;2.80;;;18.40;99.90;;;;;;4996412;28;20426;-69
2023/09/19 10:58:14;;;;;;;10.98;2.90;;;18.70;99.90;;;;;;5020284;28;20037;-69
2023/09/19 11:00:57;;;;;;;8.82;3.08;;;18.70;99.90;;;;;;5025146;28;20042;-69
2023/09/19 11:03:25;;;;;;;9.57;2.50;;;18.60;99.90;;;;;;5019775;28;20131;-69
2023/09/19 11:06:16;;;;;;;9.68;2.78;;;18.50;99.90;;;;;;5002047;28;20069;-69
2023/09/19 11:08:56;;;;;;;9.50;2.45;;;18.50;99.90;;;;;;4994675;28;20133;-68
2023/09/19 11:11:50;;;;;;;6.95;2.65;;;18.50;99.90;;;;;;5021234;28;20104;-68
2023/09/19 11:14:25;;;;;;;9.80;2.83;;;18.60;99.90;;;;;;5023872;28;20046;-68
2023/09/19 11:17:13;;;;;;;9.30;2.85;;;18.60;99.90;;;;;;5010867;28;20049;-68
2023/09/19 11:22:48;;;;;;;5.88;2.38;;;18.50;99.90;;;;;;5007414;28;20081;-69
2023/09/19 11:25:38;;;;;;;10.02;2.75;;;18.50;99.90;;;;;;5021593;28;20045;-69
2023/09/19 11:28:12;;;;;;;8.70;2.33;;;18.40;99.90;;;;;;5004545;28;20419;-69
2023/09/19 11:30:40;;;;;;;8.43;2.55;;;18.50;99.90;;;;;;5015136;28;20041;-69
2023/09/19 11:33:36;;;;;;;9.82;2.10;;;18.60;99.90;;;;;;5021253;28;20033;-69
2023/09/19 11:36:16;;;;;;;7.53;2.53;;;18.90;99.90;;;;;;5019434;28;20111;-69
2023/09/19 11:38:45;;;;;;;9.38;2.60;;;18.90;99.90;;;;;;5027123;28;20037;-69
2023/09/19 11:41:26;;;;;;;8.02;2.25;;;19.00;99.90;;;;;;4999736;28;20381;-69
2023/09/19 11:44:00;;;;;;;7.57;2.45;;;19.20;99.90;;;;;;5008820;28;20052;-69
2023/09/19 11:46:28;;;;;;;7.47;2.40;;;19.20;99.90;;;;;;5015708;28;20049;-69
2023/09/19 11:48:54;;;;;;;7.63;2.38;;;19.10;99.90;;;;;;5019698;28;20038;-69
2023/09/19 11:51:27;;;;;;;9.85;2.35;;;19.10;99.90;;;;;;5012481;28;20504;-69
2023/09/19 11:53:54;;;;;;;8.95;2.38;;;19.10;99.90;;;;;;5026202;28;20041;-69
2023/09/19 11:56:25;;;;;;;8.80;2.40;;;19.00;99.90;;;;;;5019483;28;20041;-69
2023/09/19 11:58:55;;;;;;;8.23;2.65;;;19.00;99.90;;;;;;5024283;28;20037;-69
2023/09/19 12:01:25;;;;;;;9.98;2.40;;;18.90;99.90;;;;;;5021899;28;20041;-69
2023/09/19 12:03:57;;;;;;;8.43;2.72;;;18.90;99.90;;;;;;5014670;28;20034;-69
2023/09/19 12:06:23;;;;;;;8.95;2.60;;;18.80;99.90;;;;;;5019002;28;20037;-69
2023/09/19 12:08:50;;;;;;;9.02;2.33;;;18.80;99.90;;;;;;5011744;28;20038;-70
2023/09/19 12:11:17;;;;;;;10.18;2.50;;;18.70;99.90;;;;;;5020183;28;20050;-70
2023/09/19 12:13:45;;;;;;;6.43;2.33;;;18.80;99.90;;;;;;5022730;28;20033;-70
2023/09/19 12:16:21;;;;;;;10.77;2.63;;;18.70;99.90;;;;;;5031038;28;20044;-70
2023/09/19 12:18:49;;;;;;;8.45;2.47;;;18.90;99.90;;;;;;5016529;28;20471;-70
2023/09/19 12:21:32;;;;;;;7.25;2.35;;;19.20;99.90;;;;;;5027120;28;20065;-70
2023/09/19 12:23:59;;;;;;;7.95;2.15;;;19.40;99.90;;;;;;5027401;28;20048;-70
2023/09/19 12:26:28;;;;;;;12.40;2.60;;;19.50;99.90;;;;;;5030769;28;20037;-70
2023/09/19 12:28:54;;;;;;;10.10;2.63;;;19.60;99.90;;;;;;5006632;28;20034;-69
2023/09/19 12:31:20;;;;;;;8.57;2.45;;;19.80;99.90;;;;;;5030945;28;20030;-69
2023/09/19 12:33:46;;;;;;;9.02;2.65;;;19.70;99.90;;;;;;5003133;28;20056;-69
2023/09/19 12:36:25;;;;;;;10.63;2.42;;;19.60;99.90;;;;;;5009038;28;20068;-70
2023/09/19 12:38:53;;;;;;;8.77;2.35;;;19.30;99.90;;;;;;5008809;28;20037;-70
2023/09/19 12:41:20;;;;;;;7.45;2.08;;;19.30;99.90;;;;;;5011631;28;20046;-70
2023/09/19 12:43:46;;;;;;;8.88;2.47;;;19.30;99.90;;;;;;4994790;28;20045;-70
2023/09/19 12:46:12;;;;;;;10.00;3.17;;;19.50;99.90;;;;;;5023674;28;20092;-69
2023/09/19 12:48:43;;;;;;;8.07;2.20;;;19.40;99.90;;;;;;5023294;28;20041;-69
2023/09/19 12:51:12;;;;;;;9.18;2.50;;;19.30;99.90;;;;;;5025789;28;20060;-70
2023/09/19 12:53:50;;;;;;;7.68;2.58;;;19.20;99.90;;;;;;5031698;28;20447;-69
2023/09/19 12:56:18;;;;;;;6.53;2.60;;;19.10;99.90;;;;;;5009451;28;20046;-69
2023/09/19 12:58:56;;;;;;;11.02;2.95;;;19.00;99.90;;;;;;5028422;28;20109;-69
2023/09/19 13:01:27;;;;;;;7.28;2.20;;;19.10;99.90;;;;;;5011720;28;20519;-70
2023/09/19 13:04:18;;;;;;;9.52;2.75;;;19.10;99.90;;;;;;5020406;28;20061;-69